createdAt,value
2023-03-10T06:13:35.213Z,4.53
2023-03-10T06:16:06.802Z,2.08
2023-03-10T06:18:37.117Z,2.40
2023-03-10T06:21:07.951Z,6.97
2023-03-10T06:23:38.209Z,7.30
2023-03-10T06:26:09.720Z,3.25
2023-03-10T06:28:43.900Z,7.00
2023-03-10T06:31:17.464Z,6.13
2023-03-10T06:33:46.878Z,8.38
2023-03-10T06:36:17.878Z,14.50
2023-03-10T06:38:47.874Z,9.73
2023-03-10T06:41:17.811Z,5.35
2023-03-10T06:43:49.081Z,8.23
2023-03-10T06:46:19.042Z,3.72
2023-03-10T06:48:48.572Z,3.28
2023-03-10T06:51:20.720Z,7.03
2023-03-10T06:53:50.628Z,7.28
2023-03-10T06:56:22.467Z,4.22
2023-03-10T06:58:53.376Z,4.88
2023-03-10T07:01:25.915Z,3.05
2023-03-10T07:03:55.858Z,3.25
2023-03-10T07:06:25.933Z,3.45
2023-03-10T07:08:55.880Z,3.33
2023-03-10T07:11:26.371Z,3.85
2023-03-10T07:13:57.191Z,2.13
2023-03-10T07:16:26.627Z,1.98
2023-03-10T07:18:55.977Z,3.25
2023-03-10T07:21:25.446Z,2.20
2023-03-10T07:23:54.751Z,2.22
2023-03-10T07:26:24.320Z,1.77
2023-03-10T07:28:54.585Z,1.83
2023-03-10T07:31:25.794Z,0.45
2023-03-10T07:33:55.366Z,0.70
2023-03-10T07:36:24.953Z,0.85
2023-03-10T07:38:54.354Z,0.80
2023-03-10T07:41:23.801Z,1.02
2023-03-10T07:43:55.342Z,2.22
2023-03-10T07:46:26.266Z,2.63
2023-03-10T07:48:56.962Z,4.35
2023-03-10T07:51:26.690Z,3.20
2023-03-10T07:53:56.025Z,2.50
2023-03-10T07:56:25.481Z,1.15
2023-03-10T07:58:54.861Z,2.25
2023-03-10T08:01:26.520Z,1.20
2023-03-10T08:03:58.056Z,0.50
2023-03-10T08:06:29.282Z,2.13
2023-03-10T08:08:58.980Z,2.13
2023-03-10T08:11:28.491Z,0.93
2023-03-10T08:13:58.075Z,1.98
2023-03-10T08:16:29.052Z,1.50
2023-03-10T08:18:58.657Z,0.55
2023-03-10T08:21:28.040Z,1.52
2023-03-10T08:23:57.514Z,2.15
2023-03-10T08:26:26.834Z,0.70
2023-03-10T08:28:56.263Z,0.85
2023-03-10T08:31:25.742Z,2.13
2023-03-10T08:33:59.631Z,1.60
2023-03-10T08:36:31.818Z,1.38
2023-03-10T08:39:02.440Z,0.30
2023-03-10T08:41:36.200Z,10.20
2023-03-10T08:44:06.608Z,7.63
2023-03-10T08:46:36.401Z,7.03
2023-03-10T08:49:07.208Z,6.18
2023-03-10T08:51:36.882Z,5.22
2023-03-10T08:54:06.691Z,3.20
2023-03-10T08:56:36.283Z,2.17
2023-03-10T08:59:06.120Z,5.35
2023-03-10T09:01:37.612Z,12.27
2023-03-10T09:04:10.160Z,11.05
2023-03-10T09:06:40.237Z,7.00
2023-03-10T09:09:11.400Z,5.13
2023-03-10T09:11:42.055Z,4.60
2023-03-10T09:14:15.014Z,6.38
2023-03-10T09:16:46.421Z,3.55
2023-03-10T09:19:17.386Z,6.47
2023-03-10T09:21:47.961Z,3.17
2023-03-10T09:24:18.314Z,4.80
2023-03-10T09:26:48.063Z,5.40
2023-03-10T09:29:17.717Z,6.10
2023-03-10T09:31:48.536Z,3.10
2023-03-10T09:34:19.547Z,2.28
2023-03-10T09:36:49.042Z,4.90
2023-03-10T09:39:18.456Z,4.32
2023-03-10T09:42:18.924Z,4.43
2023-03-10T09:44:59.780Z,3.13
2023-03-10T09:47:44.412Z,2.72
2023-03-10T09:54:57.800Z,5.78
2023-03-10T09:57:31.779Z,1.02
2023-03-10T10:00:11.320Z,1.90
2023-03-10T10:02:45.685Z,3.47
2023-03-10T10:05:21.868Z,2.63
2023-03-10T10:07:54.354Z,3.28
2023-03-10T10:10:28.666Z,4.03
2023-03-10T10:13:02.621Z,2.08
2023-03-10T10:15:35.451Z,4.32
2023-03-10T10:18:20.010Z,3.47
2023-03-10T10:20:59.280Z,0.77
2023-03-10T10:23:40.021Z,2.63
2023-03-10T10:26:15.635Z,1.45
2023-03-10T10:28:50.916Z,9.73
2023-03-10T10:31:22.704Z,1.75
2023-03-10T10:34:00.928Z,2.47
2023-03-10T10:36:32.861Z,3.05
2023-03-10T10:39:02.965Z,3.35
2023-03-10T10:41:36.531Z,2.47
2023-03-10T10:44:10.128Z,3.33
2023-03-10T10:46:39.792Z,2.78
2023-03-10T10:49:21.335Z,1.33
2023-03-10T10:52:01.332Z,2.22
2023-03-10T10:54:34.413Z,3.38
2023-03-10T10:57:14.777Z,2.33
2023-03-10T10:59:44.268Z,2.67
2023-03-10T11:02:25.125Z,1.67
2023-03-10T11:04:54.551Z,1.67
2023-03-10T11:07:27.914Z,6.05
2023-03-10T11:09:59.230Z,5.93
2023-03-10T11:12:36.383Z,6.70
2023-03-10T11:15:16.239Z,3.85
2023-03-10T11:17:51.695Z,5.40
2023-03-10T11:20:28.396Z,2.60
2023-03-10T11:23:09.866Z,2.83
2023-03-10T11:25:47.372Z,4.57
2023-03-10T11:28:39.235Z,3.00
2023-03-10T11:31:24.745Z,3.63
2023-03-10T11:34:00.577Z,1.27
2023-03-10T11:36:49.687Z,5.43
2023-03-10T11:39:32.492Z,1.60
2023-03-10T11:42:07.964Z,1.35
2023-03-10T11:44:43.463Z,2.60
2023-03-10T11:47:19.344Z,0.60
2023-03-10T11:49:55.005Z,2.65
2023-03-10T11:52:27.637Z,2.28
2023-03-10T11:55:05.936Z,3.00
2023-03-10T11:57:43.241Z,1.33
2023-03-10T12:00:25.665Z,1.90
2023-03-10T12:03:08.480Z,1.13
2023-03-10T12:05:46.955Z,2.63
2023-03-10T12:08:19.618Z,2.25
2023-03-10T12:10:50.677Z,1.63
2023-03-10T12:13:35.407Z,2.78
2023-03-10T12:16:08.003Z,4.28
2023-03-10T12:18:37.398Z,5.18
2023-03-10T12:21:25.229Z,2.83
2023-03-10T12:23:55.771Z,2.88
2023-03-10T12:26:58.362Z,8.25
2023-03-10T12:29:41.950Z,11.60
2023-03-10T12:32:48.606Z,2.33
2023-03-10T12:35:44.802Z,3.80
2023-03-10T12:38:49.880Z,5.07
2023-03-10T12:41:43.400Z,5.72
2023-03-10T12:47:26.036Z,7.32
2023-03-10T12:50:04.573Z,4.13
2023-03-10T12:52:47.992Z,5.82
2023-03-10T12:55:21.218Z,4.60
2023-03-10T12:57:59.790Z,4.35
2023-03-10T13:00:43.902Z,5.50
2023-03-10T13:03:31.992Z,5.10
2023-03-10T13:06:08.005Z,4.60
2023-03-10T13:08:44.604Z,2.80
2023-03-10T13:11:34.142Z,6.45
2023-03-10T13:14:06.098Z,3.33
2023-03-10T13:16:36.767Z,4.22
2023-03-10T13:19:06.740Z,10.50
2023-03-10T13:21:41.016Z,5.43
2023-03-10T13:24:25.587Z,6.47
2023-03-10T13:27:05.835Z,5.85
2023-03-10T13:29:36.090Z,4.72
2023-03-10T13:32:06.248Z,5.63
2023-03-10T13:34:37.048Z,3.78
2023-03-10T13:37:09.285Z,3.40
2023-03-10T13:39:39.068Z,5.45
2023-03-10T13:42:28.477Z,3.80
2023-03-10T13:45:04.475Z,5.47
2023-03-10T13:47:33.761Z,4.85
2023-03-10T13:50:04.445Z,5.32
2023-03-10T13:52:35.178Z,5.47
2023-03-10T13:55:14.045Z,3.50
2023-03-10T13:57:44.650Z,13.98
2023-03-10T14:00:17.234Z,13.50
2023-03-10T14:02:49.797Z,12.73
2023-03-10T14:05:43.767Z,11.38
2023-03-10T14:08:25.756Z,9.15
2023-03-10T14:10:55.450Z,5.82
2023-03-10T14:13:45.168Z,7.78
2023-03-10T14:16:14.864Z,8.02
2023-03-10T14:18:45.030Z,3.75
2023-03-10T14:21:33.317Z,8.25
2023-03-10T14:24:11.874Z,5.68
2023-03-10T14:26:41.945Z,2.92
2023-03-10T14:29:17.462Z,4.72
2023-03-10T14:31:52.689Z,5.13
2023-03-10T14:34:22.092Z,5.63
2023-03-10T14:36:51.443Z,3.83
2023-03-10T14:39:22.233Z,3.95
2023-03-10T14:41:52.788Z,3.03
2023-03-10T14:44:22.158Z,4.88
2023-03-10T14:46:53.472Z,3.42
2023-03-10T14:49:25.893Z,1.60
2023-03-10T14:51:55.754Z,3.20
2023-03-10T14:54:26.929Z,3.00
2023-03-10T14:56:59.573Z,4.32
2023-03-10T14:59:30.019Z,4.13
2023-03-10T15:02:04.919Z,2.50
2023-03-10T15:04:34.362Z,4.05
2023-03-10T15:07:03.714Z,5.72
2023-03-10T15:09:35.553Z,4.82
2023-03-10T15:12:05.682Z,6.70
2023-03-10T15:14:35.136Z,2.00
2023-03-10T15:17:04.678Z,4.68
2023-03-10T15:19:34.064Z,2.20
2023-03-10T15:22:03.432Z,3.13
2023-03-10T15:24:34.386Z,3.47
2023-03-10T15:27:04.634Z,4.07
2023-03-10T15:29:34.031Z,4.03
2023-03-10T15:32:04.328Z,2.28
2023-03-10T15:34:33.885Z,7.43
2023-03-10T15:37:03.241Z,5.65
2023-03-10T15:39:36.899Z,3.42
2023-03-10T15:42:07.147Z,6.10
2023-03-10T15:44:36.526Z,5.03
2023-03-10T15:47:06.808Z,4.38
2023-03-10T15:49:39.781Z,3.53
2023-03-10T15:52:09.250Z,7.72
2023-03-10T15:54:40.340Z,3.90
2023-03-10T15:57:09.971Z,2.28
2023-03-10T15:59:39.683Z,4.10
2023-03-10T16:02:10.540Z,3.45
2023-03-10T16:04:40.013Z,4.28
2023-03-10T16:07:09.278Z,1.88
2023-03-10T16:09:40.209Z,5.10
2023-03-10T16:12:09.892Z,2.90
2023-03-10T16:14:39.148Z,2.80
2023-03-10T16:17:08.430Z,1.73
2023-03-10T16:19:37.767Z,4.20
2023-03-10T16:22:07.525Z,1.70
2023-03-10T16:24:36.807Z,2.92
2023-03-10T16:27:07.708Z,2.60
2023-03-10T16:29:37.695Z,3.63
2023-03-10T16:32:07.821Z,3.25
2023-03-10T16:34:37.583Z,1.80
2023-03-10T16:37:08.248Z,2.70
2023-03-10T16:39:37.993Z,2.83
2023-03-10T16:42:09.152Z,4.53
2023-03-10T16:44:38.512Z,2.42
2023-03-10T16:47:07.866Z,2.97
2023-03-10T16:49:37.689Z,2.42
2023-03-10T16:52:10.821Z,2.25
2023-03-10T16:54:40.199Z,2.80
2023-03-10T16:57:12.378Z,3.53
2023-03-10T16:59:42.800Z,3.00
2023-03-10T17:02:16.645Z,2.42
2023-03-10T17:04:46.348Z,3.05
2023-03-10T17:07:15.563Z,1.80
2023-03-10T17:09:45.938Z,1.88
2023-03-10T17:12:16.735Z,1.73
2023-03-10T17:14:46.057Z,2.50
2023-03-10T17:17:15.790Z,2.95
2023-03-10T17:19:45.114Z,2.15
2023-03-10T17:22:14.392Z,2.53
2023-03-10T17:24:43.825Z,2.67
2023-03-10T17:27:13.163Z,2.03
2023-03-10T17:29:43.853Z,3.45
2023-03-10T17:32:13.134Z,3.50
2023-03-10T17:34:42.882Z,2.75
2023-03-10T17:37:12.161Z,1.63
2023-03-10T17:39:41.491Z,2.45
2023-03-10T17:42:10.728Z,1.92
2023-03-10T17:44:39.938Z,2.00
2023-03-10T17:47:10.605Z,1.58
2023-03-10T17:49:41.200Z,2.63
2023-03-10T17:52:10.419Z,3.53
2023-03-10T17:54:39.943Z,3.42
2023-03-10T17:57:09.380Z,1.65
2023-03-10T17:59:39.299Z,1.80
2023-03-10T18:02:12.208Z,5.15
2023-03-10T18:04:45.278Z,4.65
2023-03-10T18:07:14.834Z,13.52
2023-03-10T18:09:44.108Z,15.50
2023-03-10T18:12:13.385Z,12.05
2023-03-10T18:14:42.570Z,14.50
2023-03-10T18:17:13.144Z,13.55
2023-03-10T18:19:42.507Z,14.55
2023-03-10T18:22:11.652Z,16.70
2023-03-10T18:24:40.869Z,11.52
2023-03-10T18:27:10.263Z,14.93
2023-03-10T18:29:39.434Z,16.75
2023-03-10T18:32:08.803Z,9.65
2023-03-10T18:34:39.421Z,7.80
2023-03-10T18:37:08.799Z,11.88
2023-03-10T18:39:41.443Z,11.15
2023-03-10T18:42:10.646Z,16.60
2023-03-10T18:44:40.274Z,15.65
2023-03-10T18:47:09.570Z,10.50
2023-03-10T18:49:40.390Z,9.90
2023-03-10T18:52:09.775Z,12.40
2023-03-10T18:54:38.914Z,8.52
2023-03-10T18:57:08.093Z,15.27
2023-03-10T18:59:37.436Z,17.08
2023-03-10T19:02:06.700Z,13.95
2023-03-10T19:04:35.987Z,7.35
2023-03-10T19:07:08.897Z,6.65
2023-03-10T19:09:38.172Z,11.02
2023-03-10T19:12:07.719Z,20.02
2023-03-10T19:14:37.346Z,15.82
2023-03-10T19:17:06.519Z,8.98
2023-03-10T19:19:35.776Z,8.10
2023-03-10T19:22:04.879Z,14.80
2023-03-10T19:24:35.531Z,7.43
2023-03-10T19:27:05.327Z,6.40
2023-03-10T19:29:34.935Z,10.82
2023-03-10T19:32:04.307Z,17.65
2023-03-10T19:34:33.467Z,19.77
2023-03-10T19:37:02.676Z,9.95
2023-03-10T19:39:31.926Z,20.23
2023-03-10T19:42:03.272Z,6.65
2023-03-10T19:44:33.747Z,11.23
2023-03-10T19:47:02.968Z,11.82
2023-03-10T19:51:22.884Z,5.53
2023-03-10T19:53:52.819Z,9.93
2023-03-10T19:56:22.712Z,5.82
2023-03-10T19:58:52.793Z,11.45
2023-03-10T20:01:24.630Z,10.98
2023-03-10T20:03:55.790Z,7.00
2023-03-10T20:06:27.160Z,6.30
2023-03-10T20:08:57.549Z,4.10
2023-03-10T20:11:27.399Z,4.88
2023-03-10T20:13:56.672Z,4.72
2023-03-10T20:16:28.037Z,6.03
2023-03-10T20:18:58.444Z,7.30
2023-03-10T20:21:30.088Z,4.13
2023-03-10T20:23:59.366Z,4.18
2023-03-10T20:26:28.616Z,5.38
2023-03-10T20:28:58.171Z,3.92
2023-03-10T20:31:30.740Z,6.15
2023-03-10T20:34:00.066Z,6.50
2023-03-10T20:36:30.944Z,4.93
2023-03-10T20:39:00.196Z,8.55
2023-03-10T20:41:29.522Z,2.22
2023-03-10T20:43:58.716Z,3.33
2023-03-10T20:46:27.894Z,8.10
2023-03-10T20:48:57.323Z,5.50
2023-03-10T20:51:26.565Z,2.30
2023-03-10T20:53:57.726Z,5.55
2023-03-10T20:56:26.926Z,4.07
2023-03-10T20:58:59.584Z,4.15
2023-03-10T21:01:29.803Z,4.00
2023-03-10T21:03:59.131Z,7.80
2023-03-10T21:06:28.681Z,2.55
2023-03-10T21:09:01.934Z,3.13
2023-03-10T21:11:31.180Z,5.28
2023-03-10T21:14:00.438Z,4.13
2023-03-10T21:16:30.115Z,4.25
2023-03-10T21:18:59.381Z,4.97
2023-03-10T21:21:31.692Z,3.42
2023-03-10T21:24:02.442Z,2.80
2023-03-10T21:26:32.006Z,4.13
2023-03-10T21:29:01.372Z,2.78
2023-03-10T21:31:30.845Z,2.42
2023-03-10T21:34:00.116Z,4.15
2023-03-10T21:36:29.473Z,3.03
2023-03-10T21:38:58.805Z,2.38
2023-03-10T21:41:30.996Z,2.80
2023-03-10T21:44:00.715Z,4.20
2023-03-10T21:46:30.112Z,3.55
2023-03-10T21:48:59.496Z,3.25
2023-03-10T21:51:28.774Z,1.73
2023-03-10T21:53:57.934Z,3.17
2023-03-10T21:56:30.178Z,3.13
2023-03-10T21:58:59.421Z,2.78
2023-03-10T22:01:28.929Z,3.08
2023-03-10T22:03:58.339Z,2.63
2023-03-10T22:06:27.543Z,2.45
2023-03-10T22:08:56.699Z,3.45
2023-03-10T22:11:25.855Z,3.13
2023-03-10T22:13:56.738Z,3.35
2023-03-10T22:16:25.999Z,3.10
2023-03-10T22:18:55.185Z,1.92
2023-03-10T22:21:24.361Z,3.58
2023-03-10T22:23:53.527Z,3.92
2023-03-10T22:26:22.915Z,3.20
2023-03-10T22:28:52.127Z,3.22
2023-03-10T22:31:23.922Z,4.63
2023-03-10T22:33:53.194Z,4.47
2023-03-10T22:36:22.282Z,4.00
2023-03-10T22:38:51.392Z,3.15
2023-03-10T22:41:20.617Z,3.78
2023-03-10T22:43:49.794Z,1.77
2023-03-10T22:46:19.223Z,2.50
2023-03-10T22:48:50.131Z,2.83
2023-03-10T22:51:20.395Z,1.88
2023-03-10T22:53:49.589Z,5.82
2023-03-10T22:56:18.818Z,4.38
2023-03-10T22:58:47.984Z,6.93
2023-03-10T23:01:17.314Z,7.50
2023-03-10T23:03:46.455Z,11.18
2023-03-10T23:06:17.108Z,8.95
2023-03-10T23:08:46.885Z,9.13
2023-03-10T23:11:17.219Z,3.58
2023-03-10T23:13:46.462Z,6.43
2023-03-10T23:16:18.218Z,4.28
2023-03-10T23:18:47.914Z,2.60
2023-03-10T23:21:18.558Z,2.25
2023-03-10T23:23:48.938Z,4.88
2023-03-10T23:26:18.162Z,7.22
2023-03-10T23:28:47.600Z,3.72
2023-03-10T23:31:17.332Z,2.35
2023-03-10T23:33:47.106Z,4.03
2023-03-10T23:36:17.910Z,4.25
2023-03-10T23:38:47.119Z,2.33
2023-03-10T23:41:16.375Z,2.72
2023-03-10T23:43:45.516Z,2.38
2023-03-10T23:46:14.765Z,2.88
2023-03-10T23:48:44.125Z,1.35
2023-03-10T23:51:18.094Z,3.47
2023-03-10T23:53:47.269Z,3.08
2023-03-10T23:56:16.360Z,2.22
2023-03-10T23:58:45.526Z,3.17
